sensor_id;sensor_type;location;lat;lon;timestamp;P1;durP1;ratioP1;P2;durP2;ratioP2
79308;SDS011;68767;53.078;7.386;2023-09-08T00:00:14;15.05;;;7.28;;
79308;SDS011;68767;53.078;7.386;2023-09-08T00:02:41;14.35;;;6.43;;
79308;SDS011;68767;53.078;7.386;2023-09-08T00:05:08;12.65;;;6.97;;
79308;SDS011;68767;53.078;7.386;2023-09-08T00:07:35;14.48;;;6.30;;
79308;SDS011;68767;53.078;7.386;2023-09-08T00:10:02;11.52;;;6.32;;
79308;SDS011;68767;53.078;7.386;2023-09-08T00:12:29;10.98;;;6.55;;
79308;SDS011;68767;53.078;7.386;2023-09-08T00:14:56;12.75;;;6.75;;
79308;SDS011;68767;53.078;7.386;2023-09-08T00:17:23;9.50;;;5.93;;
79308;SDS011;68767;53.078;7.386;2023-09-08T00:19:50;10.13;;;6.63;;
79308;SDS011;68767;53.078;7.386;2023-09-08T00:22:17;13.48;;;7.20;;
79308;SDS011;68767;53.078;7.386;2023-09-08T00:24:44;11.13;;;6.63;;
79308;SDS011;68767;53.078;7.386;2023-09-08T00:27:11;10.02;;;6.65;;
79308;SDS011;68767;53.078;7.386;2023-09-08T00:29:37;12.30;;;6.95;;
79308;SDS011;68767;53.078;7.386;2023-09-08T00:32:05;13.60;;;6.70;;
79308;SDS011;68767;53.078;7.386;2023-09-08T00:34:32;11.60;;;6.50;;
79308;SDS011;68767;53.078;7.386;2023-09-08T00:36:59;11.70;;;6.78;;
79308;SDS011;68767;53.078;7.386;2023-09-08T00:39:31;10.60;;;6.45;;
79308;SDS011;68767;53.078;7.386;2023-09-08T00:41:58;12.43;;;6.65;;
79308;SDS011;68767;53.078;7.386;2023-09-08T00:44:25;15.70;;;7.45;;
79308;SDS011;68767;53.078;7.386;2023-09-08T00:46:51;16.73;;;6.93;;
79308;SDS011;68767;53.078;7.386;2023-09-08T00:49:19;11.48;;;7.07;;
79308;SDS011;68767;53.078;7.386;2023-09-08T00:51:47;11.55;;;6.53;;
79308;SDS011;68767;53.078;7.386;2023-09-08T00:54:14;12.13;;;6.53;;
79308;SDS011;68767;53.078;7.386;2023-09-08T00:56:42;11.88;;;6.85;;
79308;SDS011;68767;53.078;7.386;2023-09-08T00:59:09;12.15;;;6.45;;
79308;SDS011;68767;53.078;7.386;2023-09-08T01:01:36;16.90;;;7.25;;
79308;SDS011;68767;53.078;7.386;2023-09-08T01:04:03;18.38;;;7.57;;
79308;SDS011;68767;53.078;7.386;2023-09-08T01:06:30;12.63;;;6.90;;
79308;SDS011;68767;53.078;7.386;2023-09-08T01:08:59;11.82;;;6.53;;
79308;SDS011;68767;53.078;7.386;2023-09-08T01:11:26;11.98;;;7.25;;
79308;SDS011;68767;53.078;7.386;2023-09-08T01:13:54;11.00;;;7.18;;
79308;SDS011;68767;53.078;7.386;2023-09-08T01:16:20;12.48;;;7.03;;
79308;SDS011;68767;53.078;7.386;2023-09-08T01:18:48;13.60;;;7.75;;
79308;SDS011;68767;53.078;7.386;2023-09-08T01:26:27;13.75;;;8.00;;
79308;SDS011;68767;53.078;7.386;2023-09-08T01:29:01;11.90;;;7.90;;
79308;SDS011;68767;53.078;7.386;2023-09-08T01:31:31;12.18;;;7.03;;
79308;SDS011;68767;53.078;7.386;2023-09-08T01:34:00;12.93;;;6.70;;
79308;SDS011;68767;53.078;7.386;2023-09-08T01:36:29;17.10;;;8.40;;
79308;SDS011;68767;53.078;7.386;2023-09-08T01:38:56;11.05;;;6.80;;
79308;SDS011;68767;53.078;7.386;2023-09-08T01:41:24;13.32;;;7.38;;
79308;SDS011;68767;53.078;7.386;2023-09-08T01:43:51;18.67;;;8.57;;
79308;SDS011;68767;53.078;7.386;2023-09-08T01:46:18;12.45;;;7.20;;
79308;SDS011;68767;53.078;7.386;2023-09-08T01:48:45;16.63;;;7.70;;
79308;SDS011;68767;53.078;7.386;2023-09-08T01:51:13;12.80;;;8.15;;
79308;SDS011;68767;53.078;7.386;2023-09-08T01:53:40;13.93;;;8.82;;
79308;SDS011;68767;53.078;7.386;2023-09-08T01:56:08;17.23;;;7.80;;
79308;SDS011;68767;53.078;7.386;2023-09-08T01:58:35;12.27;;;7.32;;
79308;SDS011;68767;53.078;7.386;2023-09-08T02:01:03;12.75;;;7.47;;
79308;SDS011;68767;53.078;7.386;2023-09-08T02:03:34;13.25;;;8.05;;
79308;SDS011;68767;53.078;7.386;2023-09-08T02:06:01;15.13;;;8.07;;
79308;SDS011;68767;53.078;7.386;2023-09-08T02:08:27;15.90;;;7.85;;
79308;SDS011;68767;53.078;7.386;2023-09-08T02:10:54;13.30;;;7.78;;
79308;SDS011;68767;53.078;7.386;2023-09-08T02:13:21;14.75;;;7.50;;
79308;SDS011;68767;53.078;7.386;2023-09-08T02:15:48;14.05;;;8.00;;
79308;SDS011;68767;53.078;7.386;2023-09-08T02:18:15;16.73;;;8.50;;
79308;SDS011;68767;53.078;7.386;2023-09-08T02:20:42;11.95;;;7.35;;
79308;SDS011;68767;53.078;7.386;2023-09-08T02:23:09;21.42;;;8.65;;
79308;SDS011;68767;53.078;7.386;2023-09-08T02:25:37;15.32;;;7.85;;
79308;SDS011;68767;53.078;7.386;2023-09-08T02:28:04;13.93;;;8.43;;
79308;SDS011;68767;53.078;7.386;2023-09-08T02:30:32;14.07;;;8.38;;
79308;SDS011;68767;53.078;7.386;2023-09-08T02:32:59;16.60;;;9.02;;
79308;SDS011;68767;53.078;7.386;2023-09-08T02:35:27;15.13;;;8.13;;
79308;SDS011;68767;53.078;7.386;2023-09-08T02:37:56;13.85;;;8.20;;
79308;SDS011;68767;53.078;7.386;2023-09-08T02:40:25;13.57;;;8.80;;
79308;SDS011;68767;53.078;7.386;2023-09-08T02:42:52;16.02;;;8.82;;
79308;SDS011;68767;53.078;7.386;2023-09-08T02:45:19;12.40;;;8.45;;
79308;SDS011;68767;53.078;7.386;2023-09-08T02:47:46;13.02;;;8.20;;
79308;SDS011;68767;53.078;7.386;2023-09-08T02:50:13;14.27;;;8.90;;
79308;SDS011;68767;53.078;7.386;2023-09-08T02:52:40;14.88;;;9.57;;
79308;SDS011;68767;53.078;7.386;2023-09-08T02:55:07;13.88;;;7.90;;
79308;SDS011;68767;53.078;7.386;2023-09-08T02:57:34;13.23;;;8.52;;
79308;SDS011;68767;53.078;7.386;2023-09-08T03:00:01;16.45;;;8.68;;
79308;SDS011;68767;53.078;7.386;2023-09-08T03:02:29;13.88;;;8.80;;
79308;SDS011;68767;53.078;7.386;2023-09-08T03:04:57;18.15;;;9.20;;
79308;SDS011;68767;53.078;7.386;2023-09-08T03:07:25;12.40;;;8.73;;
79308;SDS011;68767;53.078;7.386;2023-09-08T03:09:52;13.85;;;8.18;;
79308;SDS011;68767;53.078;7.386;2023-09-08T03:12:20;17.17;;;8.93;;
79308;SDS011;68767;53.078;7.386;2023-09-08T03:14:47;15.82;;;8.68;;
79308;SDS011;68767;53.078;7.386;2023-09-08T03:17:14;14.85;;;8.63;;
79308;SDS011;68767;53.078;7.386;2023-09-08T03:19:44;15.52;;;9.80;;
79308;SDS011;68767;53.078;7.386;2023-09-08T03:22:12;15.82;;;10.40;;
79308;SDS011;68767;53.078;7.386;2023-09-08T03:24:39;17.70;;;9.90;;
79308;SDS011;68767;53.078;7.386;2023-09-08T03:27:05;14.70;;;8.90;;
79308;SDS011;68767;53.078;7.386;2023-09-08T03:29:32;17.65;;;8.73;;
79308;SDS011;68767;53.078;7.386;2023-09-08T03:31:59;16.85;;;10.05;;
79308;SDS011;68767;53.078;7.386;2023-09-08T03:34:27;12.77;;;8.43;;
79308;SDS011;68767;53.078;7.386;2023-09-08T03:36:54;14.60;;;9.43;;
79308;SDS011;68767;53.078;7.386;2023-09-08T03:39:21;15.45;;;9.32;;
79308;SDS011;68767;53.078;7.386;2023-09-08T03:41:48;16.35;;;8.93;;
79308;SDS011;68767;53.078;7.386;2023-09-08T03:44:15;16.38;;;9.57;;
79308;SDS011;68767;53.078;7.386;2023-09-08T03:46:42;18.75;;;10.23;;
79308;SDS011;68767;53.078;7.386;2023-09-08T03:49:09;17.20;;;9.75;;
79308;SDS011;68767;53.078;7.386;2023-09-08T03:51:36;16.30;;;8.98;;
79308;SDS011;68767;53.078;7.386;2023-09-08T03:54:03;15.40;;;9.52;;
79308;SDS011;68767;53.078;7.386;2023-09-08T03:56:30;16.85;;;8.98;;
79308;SDS011;68767;53.078;7.386;2023-09-08T03:58:57;16.10;;;9.70;;
79308;SDS011;68767;53.078;7.386;2023-09-08T04:01:24;19.77;;;9.70;;
79308;SDS011;68767;53.078;7.386;2023-09-08T04:03:51;16.20;;;9.60;;
79308;SDS011;68767;53.078;7.386;2023-09-08T04:06:19;17.55;;;9.85;;
79308;SDS011;68767;53.078;7.386;2023-09-08T04:08:48;18.52;;;10.38;;
79308;SDS011;68767;53.078;7.386;2023-09-08T04:11:15;16.50;;;9.95;;
79308;SDS011;68767;53.078;7.386;2023-09-08T04:13:42;15.52;;;8.90;;
79308;SDS011;68767;53.078;7.386;2023-09-08T04:16:09;15.82;;;10.23;;
79308;SDS011;68767;53.078;7.386;2023-09-08T04:18:36;17.15;;;9.57;;
79308;SDS011;68767;53.078;7.386;2023-09-08T04:21:05;15.90;;;9.95;;
79308;SDS011;68767;53.078;7.386;2023-09-08T04:23:34;15.38;;;10.07;;
79308;SDS011;68767;53.078;7.386;2023-09-08T04:26:01;17.40;;;11.70;;
79308;SDS011;68767;53.078;7.386;2023-09-08T04:28:28;14.95;;;10.35;;
79308;SDS011;68767;53.078;7.386;2023-09-08T04:30:55;18.92;;;11.85;;
79308;SDS011;68767;53.078;7.386;2023-09-08T04:33:23;17.85;;;10.23;;
79308;SDS011;68767;53.078;7.386;2023-09-08T04:35:51;19.25;;;9.88;;
79308;SDS011;68767;53.078;7.386;2023-09-08T04:38:18;14.55;;;9.18;;
79308;SDS011;68767;53.078;7.386;2023-09-08T04:40:45;20.40;;;9.77;;
79308;SDS011;68767;53.078;7.386;2023-09-08T04:43:12;22.05;;;9.88;;
79308;SDS011;68767;53.078;7.386;2023-09-08T04:45:39;16.23;;;10.80;;
79308;SDS011;68767;53.078;7.386;2023-09-08T04:48:06;23.30;;;10.27;;
79308;SDS011;68767;53.078;7.386;2023-09-08T04:50:33;16.05;;;9.95;;
79308;SDS011;68767;53.078;7.386;2023-09-08T04:53:01;19.73;;;11.23;;
79308;SDS011;68767;53.078;7.386;2023-09-08T04:55:28;17.80;;;9.38;;
79308;SDS011;68767;53.078;7.386;2023-09-08T04:57:55;18.10;;;9.75;;
79308;SDS011;68767;53.078;7.386;2023-09-08T05:00:24;18.70;;;9.95;;
79308;SDS011;68767;53.078;7.386;2023-09-08T05:02:51;16.05;;;10.80;;
79308;SDS011;68767;53.078;7.386;2023-09-08T05:05:18;15.63;;;10.35;;
79308;SDS011;68767;53.078;7.386;2023-09-08T05:07:45;17.23;;;9.98;;
79308;SDS011;68767;53.078;7.386;2023-09-08T05:10:12;16.90;;;10.70;;
79308;SDS011;68767;53.078;7.386;2023-09-08T05:12:39;19.60;;;10.25;;
79308;SDS011;68767;53.078;7.386;2023-09-08T05:15:06;15.82;;;8.88;;
79308;SDS011;68767;53.078;7.386;2023-09-08T05:17:39;18.67;;;10.52;;
79308;SDS011;68767;53.078;7.386;2023-09-08T05:20:07;16.40;;;9.95;;
79308;SDS011;68767;53.078;7.386;2023-09-08T05:22:34;18.90;;;10.32;;
79308;SDS011;68767;53.078;7.386;2023-09-08T05:25:03;16.02;;;9.75;;
79308;SDS011;68767;53.078;7.386;2023-09-08T05:27:31;16.70;;;10.52;;
79308;SDS011;68767;53.078;7.386;2023-09-08T05:29:58;19.08;;;10.40;;
79308;SDS011;68767;53.078;7.386;2023-09-08T05:32:25;16.02;;;8.82;;
79308;SDS011;68767;53.078;7.386;2023-09-08T05:34:52;15.45;;;9.88;;
79308;SDS011;68767;53.078;7.386;2023-09-08T05:37:20;15.05;;;10.13;;
79308;SDS011;68767;53.078;7.386;2023-09-08T05:39:48;16.85;;;9.50;;
79308;SDS011;68767;53.078;7.386;2023-09-08T05:42:15;15.63;;;9.60;;
79308;SDS011;68767;53.078;7.386;2023-09-08T05:44:42;19.67;;;11.85;;
79308;SDS011;68767;53.078;7.386;2023-09-08T05:47:09;18.60;;;9.38;;
79308;SDS011;68767;53.078;7.386;2023-09-08T05:49:36;19.98;;;9.35;;
79308;SDS011;68767;53.078;7.386;2023-09-08T05:52:03;17.33;;;9.52;;
79308;SDS011;68767;53.078;7.386;2023-09-08T05:54:31;15.00;;;10.30;;
79308;SDS011;68767;53.078;7.386;2023-09-08T05:56:58;15.32;;;9.52;;
79308;SDS011;68767;53.078;7.386;2023-09-08T05:59:26;17.15;;;10.25;;
79308;SDS011;68767;53.078;7.386;2023-09-08T06:01:53;16.77;;;10.07;;
79308;SDS011;68767;53.078;7.386;2023-09-08T06:04:20;15.40;;;9.90;;
79308;SDS011;68767;53.078;7.386;2023-09-08T06:06:47;18.02;;;10.88;;
79308;SDS011;68767;53.078;7.386;2023-09-08T06:09:14;18.85;;;10.77;;
79308;SDS011;68767;53.078;7.386;2023-09-08T06:11:43;17.60;;;9.93;;
79308;SDS011;68767;53.078;7.386;2023-09-08T06:14:10;15.13;;;9.45;;
79308;SDS011;68767;53.078;7.386;2023-09-08T06:16:39;19.42;;;10.82;;
79308;SDS011;68767;53.078;7.386;2023-09-08T06:19:07;18.92;;;10.93;;
79308;SDS011;68767;53.078;7.386;2023-09-08T06:21:34;17.67;;;9.75;;
79308;SDS011;68767;53.078;7.386;2023-09-08T06:24:02;14.85;;;10.32;;
79308;SDS011;68767;53.078;7.386;2023-09-08T06:26:29;16.05;;;10.02;;
79308;SDS011;68767;53.078;7.386;2023-09-08T06:28:56;15.95;;;8.82;;
79308;SDS011;68767;53.078;7.386;2023-09-08T06:31:23;16.50;;;9.23;;
79308;SDS011;68767;53.078;7.386;2023-09-08T06:33:50;17.40;;;9.68;;
79308;SDS011;68767;53.078;7.386;2023-09-08T06:36:20;20.95;;;9.65;;
79308;SDS011;68767;53.078;7.386;2023-09-08T06:38:47;16.25;;;9.40;;
79308;SDS011;68767;53.078;7.386;2023-09-08T06:41:14;15.93;;;10.02;;
79308;SDS011;68767;53.078;7.386;2023-09-08T06:43:41;14.88;;;9.13;;
79308;SDS011;68767;53.078;7.386;2023-09-08T06:46:14;15.50;;;8.77;;
79308;SDS011;68767;53.078;7.386;2023-09-08T06:48:41;14.45;;;9.40;;
79308;SDS011;68767;53.078;7.386;2023-09-08T06:51:08;17.33;;;9.23;;
79308;SDS011;68767;53.078;7.386;2023-09-08T06:53:37;15.50;;;8.88;;
79308;SDS011;68767;53.078;7.386;2023-09-08T06:56:05;16.15;;;8.95;;
79308;SDS011;68767;53.078;7.386;2023-09-08T06:58:32;15.32;;;9.13;;
79308;SDS011;68767;53.078;7.386;2023-09-08T07:01:01;16.00;;;8.55;;
79308;SDS011;68767;53.078;7.386;2023-09-08T07:03:29;17.25;;;8.63;;
79308;SDS011;68767;53.078;7.386;2023-09-08T07:06:07;13.90;;;9.30;;
79308;SDS011;68767;53.078;7.386;2023-09-08T07:08:34;15.27;;;8.40;;
79308;SDS011;68767;53.078;7.386;2023-09-08T07:11:02;17.15;;;9.25;;
79308;SDS011;68767;53.078;7.386;2023-09-08T07:13:29;14.65;;;8.88;;
79308;SDS011;68767;53.078;7.386;2023-09-08T07:15:57;13.82;;;8.00;;
79308;SDS011;68767;53.078;7.386;2023-09-08T07:18:24;14.98;;;8.45;;
79308;SDS011;68767;53.078;7.386;2023-09-08T07:20:51;13.73;;;8.00;;
79308;SDS011;68767;53.078;7.386;2023-09-08T07:23:20;14.35;;;7.72;;
79308;SDS011;68767;53.078;7.386;2023-09-08T07:25:47;13.05;;;8.65;;
79308;SDS011;68767;53.078;7.386;2023-09-08T07:28:17;13.80;;;9.10;;
79308;SDS011;68767;53.078;7.386;2023-09-08T07:30:48;14.15;;;7.97;;
79308;SDS011;68767;53.078;7.386;2023-09-08T07:33:15;12.48;;;8.23;;
79308;SDS011;68767;53.078;7.386;2023-09-08T07:35:43;12.32;;;7.70;;
79308;SDS011;68767;53.078;7.386;2023-09-08T07:38:10;14.25;;;8.27;;
79308;SDS011;68767;53.078;7.386;2023-09-08T07:40:37;15.20;;;8.63;;
79308;SDS011;68767;53.078;7.386;2023-09-08T07:43:05;14.02;;;7.50;;
79308;SDS011;68767;53.078;7.386;2023-09-08T07:45:32;10.32;;;7.22;;
79308;SDS011;68767;53.078;7.386;2023-09-08T07:47:59;12.43;;;7.43;;
79308;SDS011;68767;53.078;7.386;2023-09-08T07:50:26;11.80;;;7.18;;
79308;SDS011;68767;53.078;7.386;2023-09-08T07:52:55;14.00;;;8.50;;
79308;SDS011;68767;53.078;7.386;2023-09-08T07:55:23;13.45;;;7.85;;
79308;SDS011;68767;53.078;7.386;2023-09-08T07:57:54;15.48;;;7.25;;
79308;SDS011;68767;53.078;7.386;2023-09-08T08:00:21;11.45;;;7.63;;
79308;SDS011;68767;53.078;7.386;2023-09-08T08:02:49;15.88;;;7.93;;
79308;SDS011;68767;53.078;7.386;2023-09-08T08:05:17;11.93;;;7.43;;
79308;SDS011;68767;53.078;7.386;2023-09-08T08:07:44;9.32;;;6.93;;
79308;SDS011;68767;53.078;7.386;2023-09-08T08:10:11;13.35;;;7.57;;
79308;SDS011;68767;53.078;7.386;2023-09-08T08:12:39;14.77;;;7.38;;
79308;SDS011;68767;53.078;7.386;2023-09-08T08:15:07;11.70;;;7.00;;
79308;SDS011;68767;53.078;7.386;2023-09-08T08:17:37;15.55;;;7.50;;
79308;SDS011;68767;53.078;7.386;2023-09-08T08:20:05;13.88;;;7.45;;
79308;SDS011;68767;53.078;7.386;2023-09-08T08:22:33;13.90;;;6.75;;
79308;SDS011;68767;53.078;7.386;2023-09-08T08:25:00;9.95;;;6.88;;
79308;SDS011;68767;53.078;7.386;2023-09-08T08:27:27;10.93;;;6.38;;
79308;SDS011;68767;53.078;7.386;2023-09-08T08:29:54;10.85;;;6.88;;
79308;SDS011;68767;53.078;7.386;2023-09-08T08:34:50;9.90;;;7.18;;
79308;SDS011;68767;53.078;7.386;2023-09-08T08:37:18;17.95;;;7.45;;
79308;SDS011;68767;53.078;7.386;2023-09-08T08:39:45;8.70;;;6.10;;
79308;SDS011;68767;53.078;7.386;2023-09-08T08:42:12;11.25;;;5.90;;
79308;SDS011;68767;53.078;7.386;2023-09-08T08:44:40;12.13;;;5.85;;
79308;SDS011;68767;53.078;7.386;2023-09-08T08:47:08;12.75;;;6.20;;
79308;SDS011;68767;53.078;7.386;2023-09-08T08:52:05;11.70;;;6.22;;
79308;SDS011;68767;53.078;7.386;2023-09-08T08:54:38;10.93;;;6.10;;
79308;SDS011;68767;53.078;7.386;2023-09-08T08:57:06;15.07;;;5.65;;
79308;SDS011;68767;53.078;7.386;2023-09-08T08:59:33;10.00;;;5.47;;
79308;SDS011;68767;53.078;7.386;2023-09-08T09:02:01;10.30;;;6.00;;
79308;SDS011;68767;53.078;7.386;2023-09-08T09:04:30;9.60;;;6.10;;
79308;SDS011;68767;53.078;7.386;2023-09-08T09:06:58;12.13;;;6.05;;
79308;SDS011;68767;53.078;7.386;2023-09-08T09:09:26;12.20;;;6.15;;
79308;SDS011;68767;53.078;7.386;2023-09-08T09:11:55;11.85;;;6.13;;
79308;SDS011;68767;53.078;7.386;2023-09-08T09:14:22;11.02;;;5.72;;
79308;SDS011;68767;53.078;7.386;2023-09-08T09:16:50;10.55;;;5.88;;
79308;SDS011;68767;53.078;7.386;2023-09-08T09:19:18;10.90;;;5.93;;
79308;SDS011;68767;53.078;7.386;2023-09-08T09:21:52;10.32;;;6.15;;
79308;SDS011;68767;53.078;7.386;2023-09-08T09:24:34;10.38;;;5.15;;
79308;SDS011;68767;53.078;7.386;2023-09-08T09:27:08;12.57;;;5.95;;
79308;SDS011;68767;53.078;7.386;2023-09-08T09:29:45;8.63;;;5.38;;
79308;SDS011;68767;53.078;7.386;2023-09-08T09:32:13;10.88;;;5.63;;
79308;SDS011;68767;53.078;7.386;2023-09-08T09:34:50;6.70;;;4.78;;
79308;SDS011;68767;53.078;7.386;2023-09-08T09:37:21;13.20;;;5.57;;
79308;SDS011;68767;53.078;7.386;2023-09-08T09:39:52;10.77;;;5.10;;
79308;SDS011;68767;53.078;7.386;2023-09-08T09:42:20;8.52;;;5.90;;
79308;SDS011;68767;53.078;7.386;2023-09-08T09:44:48;13.45;;;5.75;;
79308;SDS011;68767;53.078;7.386;2023-09-08T09:47:16;8.15;;;5.20;;
79308;SDS011;68767;53.078;7.386;2023-09-08T09:49:43;12.52;;;5.43;;
79308;SDS011;68767;53.078;7.386;2023-09-08T09:52:12;8.23;;;5.40;;
79308;SDS011;68767;53.078;7.386;2023-09-08T09:54:43;10.45;;;5.03;;
79308;SDS011;68767;53.078;7.386;2023-09-08T09:57:11;8.57;;;5.22;;
79308;SDS011;68767;53.078;7.386;2023-09-08T09:59:40;6.38;;;4.40;;
79308;SDS011;68767;53.078;7.386;2023-09-08T10:02:12;7.93;;;5.30;;
79308;SDS011;68767;53.078;7.386;2023-09-08T10:04:40;7.18;;;4.82;;
79308;SDS011;68767;53.078;7.386;2023-09-08T10:07:08;9.32;;;4.90;;
79308;SDS011;68767;53.078;7.386;2023-09-08T10:09:36;8.48;;;5.25;;
79308;SDS011;68767;53.078;7.386;2023-09-08T10:12:03;6.20;;;4.30;;
79308;SDS011;68767;53.078;7.386;2023-09-08T10:14:32;10.65;;;5.03;;
79308;SDS011;68767;53.078;7.386;2023-09-08T10:17:02;10.65;;;4.78;;
79308;SDS011;68767;53.078;7.386;2023-09-08T10:19:32;10.85;;;5.10;;
79308;SDS011;68767;53.078;7.386;2023-09-08T10:22:11;8.27;;;4.90;;
79308;SDS011;68767;53.078;7.386;2023-09-08T10:24:42;13.13;;;5.35;;
79308;SDS011;68767;53.078;7.386;2023-09-08T10:27:13;9.52;;;4.75;;
79308;SDS011;68767;53.078;7.386;2023-09-08T10:29:41;7.97;;;4.65;;
79308;SDS011;68767;53.078;7.386;2023-09-08T10:32:08;9.55;;;5.13;;
79308;SDS011;68767;53.078;7.386;2023-09-08T10:34:36;6.25;;;4.88;;
79308;SDS011;68767;53.078;7.386;2023-09-08T10:37:20;8.10;;;5.57;;
79308;SDS011;68767;53.078;7.386;2023-09-08T10:39:48;8.73;;;5.15;;
79308;SDS011;68767;53.078;7.386;2023-09-08T10:47:30;8.88;;;5.28;;
79308;SDS011;68767;53.078;7.386;2023-09-08T10:50:03;8.05;;;5.32;;
79308;SDS011;68767;53.078;7.386;2023-09-08T10:52:31;8.95;;;4.90;;
79308;SDS011;68767;53.078;7.386;2023-09-08T10:55:00;15.95;;;5.32;;
79308;SDS011;68767;53.078;7.386;2023-09-08T10:57:28;9.18;;;4.93;;
79308;SDS011;68767;53.078;7.386;2023-09-08T10:59:58;9.35;;;5.63;;
79308;SDS011;68767;53.078;7.386;2023-09-08T11:02:40;12.65;;;5.10;;
79308;SDS011;68767;53.078;7.386;2023-09-08T11:05:09;9.57;;;5.20;;
79308;SDS011;68767;53.078;7.386;2023-09-08T11:07:38;8.85;;;4.47;;
79308;SDS011;68767;53.078;7.386;2023-09-08T11:10:07;10.52;;;4.60;;
79308;SDS011;68767;53.078;7.386;2023-09-08T11:12:35;9.75;;;5.20;;
79308;SDS011;68767;53.078;7.386;2023-09-08T11:15:03;8.50;;;4.63;;
79308;SDS011;68767;53.078;7.386;2023-09-08T11:17:32;8.77;;;4.35;;
79308;SDS011;68767;53.078;7.386;2023-09-08T11:20:01;6.80;;;4.45;;
79308;SDS011;68767;53.078;7.386;2023-09-08T11:22:37;9.75;;;4.93;;
79308;SDS011;68767;53.078;7.386;2023-09-08T11:25:06;10.45;;;5.50;;
79308;SDS011;68767;53.078;7.386;2023-09-08T11:27:34;12.38;;;5.18;;
79308;SDS011;68767;53.078;7.386;2023-09-08T11:30:01;8.85;;;5.32;;
79308;SDS011;68767;53.078;7.386;2023-09-08T11:32:35;8.93;;;5.07;;
79308;SDS011;68767;53.078;7.386;2023-09-08T11:35:06;10.55;;;4.78;;
79308;SDS011;68767;53.078;7.386;2023-09-08T11:37:36;7.93;;;4.63;;
79308;SDS011;68767;53.078;7.386;2023-09-08T11:40:09;8.88;;;4.70;;
79308;SDS011;68767;53.078;7.386;2023-09-08T11:42:42;8.27;;;4.95;;
79308;SDS011;68767;53.078;7.386;2023-09-08T11:45:12;7.00;;;4.60;;
79308;SDS011;68767;53.078;7.386;2023-09-08T11:47:48;8.65;;;4.53;;
79308;SDS011;68767;53.078;7.386;2023-09-08T11:50:16;7.40;;;4.72;;
79308;SDS011;68767;53.078;7.386;2023-09-08T11:52:46;7.10;;;4.88;;
79308;SDS011;68767;53.078;7.386;2023-09-08T11:57:41;9.32;;;5.35;;
79308;SDS011;68767;53.078;7.386;2023-09-08T12:00:10;9.40;;;5.10;;
79308;SDS011;68767;53.078;7.386;2023-09-08T12:02:43;9.00;;;4.85;;
79308;SDS011;68767;53.078;7.386;2023-09-08T12:05:12;9.15;;;4.65;;
79308;SDS011;68767;53.078;7.386;2023-09-08T12:10:08;8.25;;;4.70;;
79308;SDS011;68767;53.078;7.386;2023-09-08T12:12:43;11.05;;;4.95;;
79308;SDS011;68767;53.078;7.386;2023-09-08T12:15:12;8.02;;;4.43;;
79308;SDS011;68767;53.078;7.386;2023-09-08T12:17:56;6.30;;;4.40;;
79308;SDS011;68767;53.078;7.386;2023-09-08T12:20:22;15.07;;;5.20;;
79308;SDS011;68767;53.078;7.386;2023-09-08T12:22:50;7.45;;;5.00;;
79308;SDS011;68767;53.078;7.386;2023-09-08T12:25:17;6.72;;;4.55;;
79308;SDS011;68767;53.078;7.386;2023-09-08T12:27:45;7.38;;;4.60;;
79308;SDS011;68767;53.078;7.386;2023-09-08T12:30:19;7.97;;;4.68;;
79308;SDS011;68767;53.078;7.386;2023-09-08T12:32:47;6.22;;;4.47;;
79308;SDS011;68767;53.078;7.386;2023-09-08T12:35:19;8.75;;;5.25;;
79308;SDS011;68767;53.078;7.386;2023-09-08T12:37:57;6.97;;;4.72;;
79308;SDS011;68767;53.078;7.386;2023-09-08T12:40:26;8.35;;;5.22;;
79308;SDS011;68767;53.078;7.386;2023-09-08T12:42:57;6.70;;;4.50;;
79308;SDS011;68767;53.078;7.386;2023-09-08T12:45:46;7.53;;;4.97;;
79308;SDS011;68767;53.078;7.386;2023-09-08T12:48:13;8.70;;;4.80;;
79308;SDS011;68767;53.078;7.386;2023-09-08T12:50:40;9.15;;;5.07;;
79308;SDS011;68767;53.078;7.386;2023-09-08T12:53:07;10.35;;;4.78;;
79308;SDS011;68767;53.078;7.386;2023-09-08T12:55:34;10.85;;;5.22;;
79308;SDS011;68767;53.078;7.386;2023-09-08T12:58:01;7.47;;;4.78;;
79308;SDS011;68767;53.078;7.386;2023-09-08T13:00:28;7.30;;;4.70;;
79308;SDS011;68767;53.078;7.386;2023-09-08T13:02:55;8.68;;;4.68;;
79308;SDS011;68767;53.078;7.386;2023-09-08T13:05:22;10.88;;;5.20;;
79308;SDS011;68767;53.078;7.386;2023-09-08T13:07:49;7.57;;;4.70;;
79308;SDS011;68767;53.078;7.386;2023-09-08T13:10:19;12.23;;;5.32;;
79308;SDS011;68767;53.078;7.386;2023-09-08T13:12:46;7.40;;;5.10;;
79308;SDS011;68767;53.078;7.386;2023-09-08T13:15:15;7.68;;;4.82;;
79308;SDS011;68767;53.078;7.386;2023-09-08T13:17:43;9.05;;;4.32;;
79308;SDS011;68767;53.078;7.386;2023-09-08T13:20:10;9.45;;;4.43;;
79308;SDS011;68767;53.078;7.386;2023-09-08T13:22:37;6.82;;;4.70;;
79308;SDS011;68767;53.078;7.386;2023-09-08T13:25:04;19.30;;;5.10;;
79308;SDS011;68767;53.078;7.386;2023-09-08T13:27:32;6.70;;;4.30;;
79308;SDS011;68767;53.078;7.386;2023-09-08T13:30:08;8.32;;;4.93;;
79308;SDS011;68767;53.078;7.386;2023-09-08T13:32:36;7.95;;;4.25;;
79308;SDS011;68767;53.078;7.386;2023-09-08T13:35:04;8.80;;;4.32;;
79308;SDS011;68767;53.078;7.386;2023-09-08T13:37:32;9.85;;;4.50;;
79308;SDS011;68767;53.078;7.386;2023-09-08T13:40:01;6.45;;;4.25;;
79308;SDS011;68767;53.078;7.386;2023-09-08T13:42:31;8.75;;;4.45;;
79308;SDS011;68767;53.078;7.386;2023-09-08T13:44:58;6.63;;;4.15;;
79308;SDS011;68767;53.078;7.386;2023-09-08T13:47:27;5.82;;;4.32;;
79308;SDS011;68767;53.078;7.386;2023-09-08T13:49:54;8.27;;;4.78;;
79308;SDS011;68767;53.078;7.386;2023-09-08T13:52:24;11.80;;;4.57;;
79308;SDS011;68767;53.078;7.386;2023-09-08T13:54:56;6.88;;;4.30;;
79308;SDS011;68767;53.078;7.386;2023-09-08T13:57:26;11.95;;;5.05;;
79308;SDS011;68767;53.078;7.386;2023-09-08T13:59:54;9.00;;;4.60;;
79308;SDS011;68767;53.078;7.386;2023-09-08T14:02:23;15.70;;;4.80;;
79308;SDS011;68767;53.078;7.386;2023-09-08T14:04:53;6.18;;;4.35;;
79308;SDS011;68767;53.078;7.386;2023-09-08T14:09:51;11.25;;;4.68;;
79308;SDS011;68767;53.078;7.386;2023-09-08T14:12:30;8.70;;;5.32;;
79308;SDS011;68767;53.078;7.386;2023-09-08T14:15:01;8.07;;;4.13;;
79308;SDS011;68767;53.078;7.386;2023-09-08T14:17:29;6.18;;;4.03;;
79308;SDS011;68767;53.078;7.386;2023-09-08T14:19:56;6.93;;;4.03;;
79308;SDS011;68767;53.078;7.386;2023-09-08T14:22:23;6.97;;;4.20;;
79308;SDS011;68767;53.078;7.386;2023-09-08T14:24:50;15.63;;;4.32;;
79308;SDS011;68767;53.078;7.386;2023-09-08T14:27:16;7.43;;;4.20;;
79308;SDS011;68767;53.078;7.386;2023-09-08T14:29:43;8.65;;;4.40;;
79308;SDS011;68767;53.078;7.386;2023-09-08T14:32:10;8.27;;;4.88;;
79308;SDS011;68767;53.078;7.386;2023-09-08T14:34:37;7.97;;;4.25;;
79308;SDS011;68767;53.078;7.386;2023-09-08T14:37:04;6.15;;;4.47;;
79308;SDS011;68767;53.078;7.386;2023-09-08T14:39:34;8.02;;;3.78;;
79308;SDS011;68767;53.078;7.386;2023-09-08T14:42:01;9.35;;;4.40;;
79308;SDS011;68767;53.078;7.386;2023-09-08T14:44:28;10.23;;;4.20;;
79308;SDS011;68767;53.078;7.386;2023-09-08T14:46:55;7.82;;;4.55;;
79308;SDS011;68767;53.078;7.386;2023-09-08T14:49:22;12.05;;;4.15;;
79308;SDS011;68767;53.078;7.386;2023-09-08T14:51:49;7.45;;;4.30;;
79308;SDS011;68767;53.078;7.386;2023-09-08T14:54:16;8.02;;;4.75;;
79308;SDS011;68767;53.078;7.386;2023-09-08T14:56:43;5.45;;;4.07;;
79308;SDS011;68767;53.078;7.386;2023-09-08T14:59:10;6.60;;;4.53;;
79308;SDS011;68767;53.078;7.386;2023-09-08T15:01:37;8.15;;;4.20;;
79308;SDS011;68767;53.078;7.386;2023-09-08T15:04:07;7.80;;;4.10;;
79308;SDS011;68767;53.078;7.386;2023-09-08T15:06:34;8.65;;;4.38;;